createdAt,value
2019-05-09T00:02:27.589Z,10.30
2019-05-09T00:05:32.980Z,10.20
2019-05-09T00:08:36.217Z,10.20
2019-05-09T00:11:39.680Z,10.30
2019-05-09T00:14:43.443Z,10.30
2019-05-09T00:17:47.049Z,10.20
2019-05-09T00:20:53.976Z,10.20
2019-05-09T00:23:57.309Z,10.20
2019-05-09T00:27:00.732Z,10.10
2019-05-09T00:30:05.899Z,10.10
2019-05-09T00:33:09.368Z,10.10
2019-05-09T00:36:14.052Z,10.10
2019-05-09T00:39:17.732Z,10.10
2019-05-09T00:42:21.185Z,10.00
2019-05-09T00:45:33.385Z,10.10
2019-05-09T00:48:53.217Z,10.10
2019-05-09T00:51:56.079Z,10.10
2019-05-09T00:54:59.505Z,10.00
2019-05-09T00:58:04.161Z,10.00
2019-05-09T01:01:08.242Z,10.00
2019-05-09T01:04:13.619Z,10.10
2019-05-09T01:07:16.886Z,10.10
2019-05-09T01:10:20.325Z,10.10
2019-05-09T01:13:29.884Z,10.10
2019-05-09T01:16:33.641Z,10.10
2019-05-09T01:19:37.242Z,10.10
2019-05-09T01:22:40.696Z,10.00
2019-05-09T01:25:44.168Z,9.90
2019-05-09T01:28:47.597Z,9.90
2019-05-09T01:31:51.438Z,9.80
2019-05-09T01:34:54.868Z,9.80
2019-05-09T01:37:58.329Z,9.80
2019-05-09T01:41:03.824Z,9.80
2019-05-09T01:44:06.937Z,9.80
2019-05-09T01:47:10.389Z,9.80
2019-05-09T01:50:14.158Z,9.80
2019-05-09T01:53:19.261Z,9.80
2019-05-09T01:56:23.534Z,9.80
2019-05-09T01:59:27.126Z,9.70
2019-05-09T02:02:30.581Z,9.80
2019-05-09T02:05:34.119Z,9.70
2019-05-09T02:08:37.540Z,9.80
2019-05-09T02:11:43.338Z,9.70
2019-05-09T02:14:59.689Z,9.70
2019-05-09T02:18:07.441Z,9.60
2019-05-09T02:21:12.356Z,9.60
2019-05-09T02:24:16.061Z,9.70
2019-05-09T02:27:19.504Z,9.60
2019-05-09T02:30:25.400Z,9.60
2019-05-09T02:33:28.282Z,9.60
2019-05-09T02:36:31.741Z,9.60
2019-05-09T02:39:35.165Z,9.60
2019-05-09T02:42:39.675Z,9.50
2019-05-09T02:45:54.307Z,9.50
2019-05-09T02:48:59.458Z,9.50
2019-05-09T02:52:02.924Z,9.50
2019-05-09T02:55:09.936Z,9.50
2019-05-09T02:58:13.909Z,9.50
2019-05-09T03:01:19.098Z,9.50
2019-05-09T03:04:22.605Z,9.40
2019-05-09T03:07:48.261Z,9.40
2019-05-09T03:10:50.950Z,9.40
2019-05-09T03:13:54.378Z,9.40
2019-05-09T03:16:58.784Z,9.40
2019-05-09T03:20:03.815Z,9.40
2019-05-09T03:23:09.177Z,9.40
2019-05-09T03:26:14.092Z,9.40
2019-05-09T03:29:29.199Z,9.30
2019-05-09T03:32:33.513Z,9.30
2019-05-09T03:35:37.878Z,9.20
2019-05-09T03:38:41.468Z,9.20
2019-05-09T03:41:44.933Z,9.20
2019-05-09T03:44:48.368Z,9.10
2019-05-09T03:47:53.466Z,9.10
2019-05-09T03:50:57.760Z,9.10
2019-05-09T03:54:01.329Z,9.00
2019-05-09T03:57:09.648Z,9.00
2019-05-09T04:00:13.417Z,9.00
2019-05-09T04:03:19.916Z,9.00
2019-05-09T04:06:22.017Z,8.90
2019-05-09T04:09:27.374Z,8.90
2019-05-09T04:12:30.637Z,8.80
2019-05-09T04:15:34.061Z,8.70
2019-05-09T04:18:37.680Z,8.70
2019-05-09T04:21:42.682Z,8.80
2019-05-09T04:24:47.385Z,8.80
2019-05-09T04:27:52.204Z,8.90
2019-05-09T04:30:55.658Z,8.90
2019-05-09T04:33:59.085Z,9.00
2019-05-09T04:37:02.548Z,8.90
2019-05-09T04:40:08.126Z,9.00
2019-05-09T04:43:18.352Z,9.00
2019-05-09T04:46:20.757Z,9.00
2019-05-09T04:49:21.562Z,9.00
2019-05-09T04:52:25.008Z,9.10
2019-05-09T04:55:30.084Z,9.20
2019-05-09T04:58:33.533Z,9.20
2019-05-09T05:01:39.037Z,9.30
2019-05-09T05:04:42.725Z,9.40
2019-05-09T05:07:48.088Z,9.40
2019-05-09T05:10:51.337Z,9.50
2019-05-09T05:13:54.814Z,9.60
2019-05-09T05:17:07.392Z,9.70
2019-05-09T05:20:08.199Z,9.80
2019-05-09T05:23:21.656Z,9.80
2019-05-09T05:26:27.555Z,10.00
2019-05-09T05:29:30.281Z,10.10
2019-05-09T05:32:35.378Z,11.20
2019-05-09T05:35:43.348Z,13.70
2019-05-09T05:38:47.983Z,15.90
2019-05-09T05:41:51.629Z,17.90
2019-05-09T05:44:55.079Z,19.60
2019-05-09T05:48:09.440Z,20.50
2019-05-09T05:51:12.965Z,20.70
2019-05-09T05:54:18.170Z,21.20
2019-05-09T05:57:21.701Z,21.60
2019-05-09T06:00:28.366Z,21.80
2019-05-09T06:03:31.283Z,22.00
2019-05-09T06:06:34.733Z,21.40
2019-05-09T06:09:38.226Z,19.80
2019-05-09T06:12:41.712Z,18.50
2019-05-09T06:15:45.147Z,17.30
2019-05-09T06:18:48.607Z,16.00
2019-05-09T06:21:52.489Z,15.00
2019-05-09T06:24:58.095Z,14.10
2019-05-09T06:28:01.236Z,13.70
2019-05-09T06:31:04.698Z,13.30
2019-05-09T06:34:08.426Z,13.20
2019-05-09T06:37:11.994Z,13.10
2019-05-09T06:40:21.383Z,12.90
2019-05-09T06:43:25.424Z,12.80
2019-05-09T06:46:30.503Z,12.60
2019-05-09T06:49:38.569Z,12.40
2019-05-09T06:52:42.108Z,12.30
2019-05-09T06:55:47.488Z,12.30
2019-05-09T06:58:50.733Z,12.40
2019-05-09T07:01:58.509Z,12.70
2019-05-09T07:05:03.597Z,12.80
2019-05-09T07:08:14.786Z,13.00
2019-05-09T07:11:19.180Z,13.10
2019-05-09T07:14:41.746Z,13.60
2019-05-09T07:17:43.478Z,14.10
2019-05-09T07:20:48.312Z,14.00
2019-05-09T07:23:51.964Z,13.70
2019-05-09T07:26:55.424Z,14.00
2019-05-09T07:30:00.490Z,14.50
2019-05-09T07:33:14.477Z,15.00
2019-05-09T07:36:18.920Z,15.20
2019-05-09T07:39:22.561Z,15.30
2019-05-09T07:42:28.346Z,15.20
2019-05-09T07:45:31.177Z,15.10
2019-05-09T07:48:38.122Z,16.20
2019-05-09T07:51:41.217Z,16.90
2019-05-09T07:54:44.690Z,17.00
2019-05-09T07:57:54.949Z,16.90
2019-05-09T08:00:53.338Z,16.50
2019-05-09T08:03:58.372Z,16.00
2019-05-09T08:07:02.763Z,15.20
2019-05-09T08:10:09.062Z,14.70
2019-05-09T08:13:12.180Z,14.30
2019-05-09T08:16:15.768Z,14.20
2019-05-09T08:19:19.252Z,14.20
2019-05-09T08:22:25.938Z,14.20
2019-05-09T08:25:28.009Z,14.40
2019-05-09T08:28:31.493Z,14.30
2019-05-09T08:31:34.977Z,14.80
2019-05-09T08:34:38.473Z,15.70
2019-05-09T08:37:41.944Z,16.80
2019-05-09T08:40:49.942Z,17.80
2019-05-09T08:43:53.400Z,17.90
2019-05-09T08:46:57.420Z,18.60
2019-05-09T08:50:23.077Z,19.20
2019-05-09T08:53:27.613Z,19.00
2019-05-09T08:56:31.241Z,19.00
2019-05-09T08:59:34.705Z,18.50
2019-05-09T09:02:38.153Z,17.70
2019-05-09T09:05:43.435Z,17.70
2019-05-09T09:08:48.308Z,18.30
2019-05-09T09:11:51.979Z,19.20
2019-05-09T09:14:55.456Z,18.90
2019-05-09T09:17:58.891Z,18.40
2019-05-09T09:21:02.363Z,18.20
2019-05-09T09:24:05.793Z,18.40
2019-05-09T09:27:09.257Z,18.70
2019-05-09T09:30:20.276Z,18.50
2019-05-09T09:33:18.031Z,18.10
2019-05-09T09:36:21.464Z,17.70
2019-05-09T09:39:27.289Z,17.50
2019-05-09T09:42:30.353Z,17.40
2019-05-09T09:45:33.816Z,17.30
2019-05-09T09:48:38.815Z,17.00
2019-05-09T09:51:42.425Z,16.50
2019-05-09T09:54:48.100Z,16.60
2019-05-09T09:57:51.057Z,16.70
2019-05-09T10:00:59.069Z,16.50
2019-05-09T10:04:16.618Z,16.20
2019-05-09T10:07:12.929Z,15.90
2019-05-09T10:10:31.085Z,15.90
2019-05-09T10:13:34.533Z,15.90
2019-05-09T10:16:39.613Z,16.00
2019-05-09T10:19:44.749Z,16.70
2019-05-09T10:22:58.646Z,16.90
2019-05-09T10:25:53.473Z,16.80
2019-05-09T10:28:56.913Z,16.60
2019-05-09T10:32:00.380Z,16.30
2019-05-09T10:35:05.237Z,16.00
2019-05-09T10:38:09.045Z,16.20
2019-05-09T10:41:12.751Z,16.40
2019-05-09T10:44:18.123Z,16.60
2019-05-09T10:47:31.830Z,16.60
2019-05-09T10:50:36.966Z,16.70
2019-05-09T10:53:40.452Z,16.60
2019-05-09T10:56:43.938Z,16.70
2019-05-09T10:59:48.273Z,17.00
2019-05-09T11:02:51.912Z,17.10
2019-05-09T11:05:55.342Z,17.20
2019-05-09T11:08:58.841Z,17.00
2019-05-09T11:12:02.394Z,16.80
2019-05-09T11:15:08.991Z,16.80
2019-05-09T11:18:11.794Z,16.70
2019-05-09T11:21:15.224Z,16.60
2019-05-09T11:24:18.983Z,16.80
2019-05-09T11:27:22.608Z,16.80
2019-05-09T11:30:27.974Z,17.10
2019-05-09T11:33:31.225Z,17.20
2019-05-09T11:36:34.674Z,17.10
2019-05-09T11:39:42.008Z,17.00
2019-05-09T11:42:43.289Z,17.00
2019-05-09T11:45:47.904Z,16.80
2019-05-09T11:48:51.453Z,16.50
2019-05-09T11:51:57.433Z,16.50
2019-05-09T11:55:00.072Z,16.50
2019-05-09T11:58:03.582Z,16.50
2019-05-09T12:01:08.315Z,16.50
2019-05-09T12:04:11.878Z,16.80
2019-05-09T12:07:17.672Z,16.90
2019-05-09T12:10:20.490Z,17.20
2019-05-09T12:13:23.954Z,17.50
2019-05-09T12:16:27.973Z,17.80
2019-05-09T12:19:31.621Z,17.80
2019-05-09T12:22:35.055Z,17.90
2019-05-09T12:25:38.820Z,17.60
2019-05-09T12:28:42.322Z,17.50
2019-05-09T12:31:48.322Z,17.40
2019-05-09T12:34:50.937Z,17.30
2019-05-09T12:37:54.404Z,17.00
2019-05-09T12:41:00.502Z,16.70
2019-05-09T12:44:03.131Z,16.70
2019-05-09T12:47:12.645Z,16.90
2019-05-09T12:50:18.544Z,16.90
2019-05-09T12:53:21.404Z,17.00
2019-05-09T12:56:24.912Z,16.90
2019-05-09T12:59:28.739Z,16.60
2019-05-09T13:02:32.327Z,16.50
2019-05-09T13:05:35.777Z,16.60
2019-05-09T13:08:39.200Z,16.70
2019-05-09T13:11:42.659Z,16.70
2019-05-09T13:14:48.446Z,16.70
2019-05-09T13:17:51.573Z,16.60
2019-05-09T13:20:55.034Z,16.40
2019-05-09T13:23:58.786Z,16.30
2019-05-09T13:27:02.681Z,16.20
2019-05-09T13:30:08.357Z,16.00
2019-05-09T13:33:11.991Z,16.00
2019-05-09T13:36:15.421Z,16.10
2019-05-09T13:39:18.903Z,16.20
2019-05-09T13:42:22.414Z,16.20
2019-05-09T13:45:28.447Z,16.10
2019-05-09T13:48:56.195Z,16.10
2019-05-09T13:51:47.481Z,15.80
2019-05-09T13:54:41.398Z,15.40
2019-05-09T13:57:44.866Z,15.20
2019-05-09T14:00:59.035Z,15.20
2019-05-09T14:03:53.477Z,15.20
2019-05-09T14:06:56.921Z,15.40
2019-05-09T14:10:00.382Z,15.70
2019-05-09T14:13:09.370Z,16.00
2019-05-09T14:16:19.304Z,16.20
2019-05-09T14:19:40.843Z,16.30
2019-05-09T14:22:20.130Z,16.40
2019-05-09T14:25:23.681Z,16.50
2019-05-09T14:28:28.640Z,16.60
2019-05-09T14:31:32.648Z,16.90
2019-05-09T14:34:38.160Z,16.80
2019-05-09T14:37:41.546Z,16.70
2019-05-09T14:40:47.006Z,16.60
2019-05-09T14:43:50.177Z,16.40
2019-05-09T14:46:53.610Z,16.30
2019-05-09T14:49:59.282Z,16.30
2019-05-09T14:53:02.237Z,16.30
2019-05-09T14:56:08.525Z,16.20
2019-05-09T14:59:10.997Z,16.20
2019-05-09T15:02:14.445Z,16.20
2019-05-09T15:05:30.088Z,16.20
2019-05-09T15:08:33.882Z,16.10
2019-05-09T15:11:39.504Z,16.00
2019-05-09T15:14:43.221Z,16.10
2019-05-09T15:17:51.159Z,16.00
2019-05-09T15:20:54.726Z,16.00
2019-05-09T15:23:59.282Z,16.00
2019-05-09T15:27:02.904Z,16.00
2019-05-09T15:30:06.901Z,16.00
2019-05-09T15:33:10.330Z,16.00
2019-05-09T15:36:13.816Z,16.00
2019-05-09T15:39:18.417Z,16.00
2019-05-09T15:42:22.269Z,16.00
2019-05-09T15:45:28.578Z,16.00
2019-05-09T15:48:32.192Z,15.90
2019-05-09T15:51:35.620Z,15.70
2019-05-09T15:54:39.094Z,15.60
2019-05-09T15:57:42.530Z,15.50
2019-05-09T16:00:47.753Z,15.40
2019-05-09T16:03:51.316Z,15.30
2019-05-09T16:06:54.752Z,15.30
2019-05-09T16:09:58.234Z,15.20
2019-05-09T16:13:01.714Z,15.20
2019-05-09T16:16:05.267Z,15.10
2019-05-09T16:19:09.113Z,15.10
2019-05-09T16:22:12.673Z,14.90
2019-05-09T16:25:18.202Z,14.80
2019-05-09T16:28:21.309Z,14.80
2019-05-09T16:31:24.776Z,14.80
2019-05-09T16:34:28.352Z,14.90
2019-05-09T16:37:52.849Z,14.80
2019-05-09T16:40:38.610Z,14.80
2019-05-09T16:43:42.865Z,14.70
2019-05-09T16:46:48.365Z,14.70
2019-05-09T16:49:51.469Z,14.50
2019-05-09T16:52:58.006Z,14.50
2019-05-09T16:56:00.424Z,14.30
2019-05-09T16:59:03.926Z,14.30
2019-05-09T17:02:18.881Z,14.30
2019-05-09T17:05:12.638Z,14.30
2019-05-09T17:08:17.752Z,14.20
2019-05-09T17:11:21.492Z,14.10
2019-05-09T17:14:25.024Z,14.10
2019-05-09T17:17:28.507Z,14.10
2019-05-09T17:20:33.665Z,14.10
2019-05-09T17:23:38.467Z,14.00
2019-05-09T17:26:42.047Z,13.90
2019-05-09T17:29:47.836Z,13.90
2019-05-09T17:32:51.421Z,13.90
2019-05-09T17:35:54.876Z,13.90
2019-05-09T17:38:58.434Z,13.80
2019-05-09T17:42:01.869Z,13.80
2019-05-09T17:45:05.670Z,13.70
2019-05-09T17:48:09.096Z,13.70
2019-05-09T17:51:12.561Z,13.60
2019-05-09T17:54:18.114Z,13.50
2019-05-09T17:57:21.177Z,13.40
2019-05-09T18:00:24.872Z,13.40
2019-05-09T18:03:29.132Z,13.30
2019-05-09T18:06:32.914Z,13.30
2019-05-09T18:09:36.357Z,13.30
2019-05-09T18:12:39.818Z,13.20
2019-05-09T18:15:43.315Z,13.10
2019-05-09T18:18:48.041Z,13.00
2019-05-09T18:21:51.668Z,13.00
2019-05-09T18:24:55.097Z,13.00
2019-05-09T18:27:58.568Z,13.00
2019-05-09T18:31:02.004Z,13.00
2019-05-09T18:34:07.291Z,13.00
2019-05-09T18:37:10.645Z,12.90
2019-05-09T18:40:14.850Z,12.90
2019-05-09T18:43:18.316Z,12.90
2019-05-09T18:46:21.788Z,12.80
2019-05-09T18:49:25.305Z,12.80
2019-05-09T18:52:28.737Z,12.80
2019-05-09T18:55:32.192Z,12.70
2019-05-09T18:58:36.206Z,12.70
2019-05-09T19:01:40.002Z,12.70
2019-05-09T19:04:43.536Z,12.70
2019-05-09T19:07:47.035Z,12.60
2019-05-09T19:10:52.278Z,12.60
2019-05-09T19:13:56.705Z,12.50
2019-05-09T19:17:18.056Z,12.50
2019-05-09T19:20:29.165Z,12.40
2019-05-09T19:23:32.872Z,12.40
2019-05-09T19:26:36.424Z,12.40
2019-05-09T19:29:39.941Z,12.40
2019-05-09T19:32:43.393Z,12.40
2019-05-09T19:35:46.854Z,12.50
2019-05-09T19:38:50.361Z,12.40
2019-05-09T19:41:53.908Z,12.50
2019-05-09T19:44:57.381Z,12.40
2019-05-09T19:48:00.846Z,12.30
2019-05-09T19:51:04.289Z,12.30
2019-05-09T19:54:07.737Z,12.20
2019-05-09T19:57:11.177Z,12.20
2019-05-09T20:00:15.831Z,12.20
2019-05-09T20:03:19.309Z,12.20
2019-05-09T20:06:22.737Z,12.20
2019-05-09T20:09:27.836Z,12.10
2019-05-09T20:12:48.175Z,12.10
2019-05-09T20:15:52.204Z,12.10
2019-05-09T20:18:55.913Z,12.20
2019-05-09T20:21:59.389Z,12.10
2019-05-09T20:25:03.071Z,12.10
2019-05-09T20:28:06.520Z,12.00
2019-05-09T20:31:10.086Z,12.00
2019-05-09T20:34:13.586Z,12.00
2019-05-09T20:37:17.034Z,12.00
2019-05-09T20:40:20.688Z,12.00
2019-05-09T20:43:24.329Z,12.00
2019-05-09T20:46:27.975Z,12.00
2019-05-09T20:49:31.617Z,12.00
2019-05-09T20:52:35.257Z,12.00
2019-05-09T20:55:38.897Z,12.10
2019-05-09T20:58:42.541Z,12.10
2019-05-09T21:01:48.170Z,12.10
2019-05-09T21:04:51.850Z,12.00
2019-05-09T21:07:55.460Z,11.90
2019-05-09T21:10:59.101Z,11.80
2019-05-09T21:14:02.732Z,11.80
2019-05-09T21:17:06.389Z,11.80
2019-05-09T21:20:10.145Z,11.80
2019-05-09T21:23:24.422Z,11.80
2019-05-09T21:26:19.132Z,11.80
2019-05-09T21:29:22.769Z,11.80
2019-05-09T21:32:26.483Z,11.80
2019-05-09T21:35:29.990Z,11.70
2019-05-09T21:38:33.485Z,11.70
2019-05-09T21:41:36.997Z,11.70
2019-05-09T21:44:40.452Z,11.70
2019-05-09T21:47:43.897Z,11.80
2019-05-09T21:50:47.340Z,11.80
2019-05-09T21:53:50.804Z,11.70
2019-05-09T21:56:54.255Z,11.70
2019-05-09T21:59:57.717Z,11.60
2019-05-09T22:03:01.158Z,11.60
2019-05-09T22:06:04.613Z,11.60
2019-05-09T22:09:10.084Z,11.60
2019-05-09T22:12:13.545Z,11.50
2019-05-09T22:15:17.224Z,11.50
2019-05-09T22:18:20.681Z,11.50
2019-05-09T22:21:24.138Z,11.50
2019-05-09T22:24:27.682Z,11.50
2019-05-09T22:27:31.110Z,11.50
2019-05-09T22:30:34.581Z,11.40
2019-05-09T22:33:38.115Z,11.30
2019-05-09T22:36:41.552Z,11.20
2019-05-09T22:39:45.013Z,11.20
2019-05-09T22:42:48.450Z,11.20
2019-05-09T22:45:51.921Z,11.20
2019-05-09T22:48:55.357Z,11.20
2019-05-09T22:51:58.828Z,11.10
2019-05-09T22:55:02.259Z,11.10
2019-05-09T22:58:05.771Z,11.10
2019-05-09T23:01:09.241Z,11.10
2019-05-09T23:04:12.697Z,11.10
2019-05-09T23:07:16.132Z,11.20
2019-05-09T23:10:19.585Z,11.20
2019-05-09T23:13:23.026Z,11.20
2019-05-09T23:16:28.123Z,11.10
2019-05-09T23:19:31.554Z,11.20
2019-05-09T23:22:35.004Z,11.20
2019-05-09T23:25:38.463Z,11.20
2019-05-09T23:28:41.924Z,11.20
2019-05-09T23:31:51.329Z,11.30
2019-05-09T23:34:54.860Z,11.30
2019-05-09T23:37:58.795Z,11.20
2019-05-09T23:41:02.222Z,11.20
2019-05-09T23:44:05.685Z,11.20
2019-05-09T23:47:09.172Z,11.20
2019-05-09T23:50:12.730Z,11.20
2019-05-09T23:53:20.717Z,11.30
2019-05-09T23:56:42.135Z,11.30
